ENT weather

Eniwetok Airport
Eniwetok Atoll, Eniwetok, Marshall Islands

Public forecast

Using degrees Celsius for public forecast. Weather courtesy of forecast.io.

Closest aviation weather report (METAR) to Eniwetok Airport

Closest report is Bucholz Army Air Field, 356.1 nm (659.5 km) ESE. Retrieved 2020/04/09 04:20 UTC (0 seconds ago):

PKWA 090420Z AUTO 08010KT 10SM CLR 31/26 A2984

Closest aviation forecast (TAF) to Eniwetok Airport

Closest forecast is Bucholz Army Air Field, 356.1 nm (659.5 km) ESE. Retrieved 2020-04-09 00:42 UTC (3 hours ago):

TAF PKWA 082336Z 0900/0924 10011KT P6SM SCT030